sensor_id;sensor_type;location;lat;lon;timestamp;pressure;altitude;pressure_sealevel;temperature;humidity
53932;BME280;39844;52.496;13.482;2024-01-06T00:02:13;100354.31;;;1.48;100.00
53932;BME280;39844;52.496;13.482;2024-01-06T00:04:38;100360.34;;;1.47;100.00
53932;BME280;39844;52.496;13.482;2024-01-06T00:07:03;100366.38;;;1.48;100.00
53932;BME280;39844;52.496;13.482;2024-01-06T00:09:29;100355.19;;;1.49;100.00
53932;BME280;39844;52.496;13.482;2024-01-06T00:11:54;100362.97;;;1.49;100.00
53932;BME280;39844;52.496;13.482;2024-01-06T00:14:19;100369.03;;;1.51;100.00
53932;BME280;39844;52.496;13.482;2024-01-06T00:16:44;100363.84;;;1.49;100.00
53932;BME280;39844;52.496;13.482;2024-01-06T00:19:10;100373.31;;;1.49;100.00
53932;BME280;39844;52.496;13.482;2024-01-06T00:21:35;100359.47;;;1.47;100.00
53932;BME280;39844;52.496;13.482;2024-01-06T00:24:01;100360.28;;;1.46;100.00
53932;BME280;39844;52.496;13.482;2024-01-06T00:26:26;100355.97;;;1.45;100.00
53932;BME280;39844;52.496;13.482;2024-01-06T00:28:51;100366.31;;;1.45;100.00
53932;BME280;39844;52.496;13.482;2024-01-06T00:31:17;100363.72;;;1.45;100.00
53932;BME280;39844;52.496;13.482;2024-01-06T00:33:43;100364.56;;;1.44;100.00
53932;BME280;39844;52.496;13.482;2024-01-06T00:36:08;100362.75;;;1.41;100.00
53932;BME280;39844;52.496;13.482;2024-01-06T00:38:34;100360.16;;;1.40;100.00
53932;BME280;39844;52.496;13.482;2024-01-06T00:40:59;100362.66;;;1.38;100.00
53932;BME280;39844;52.496;13.482;2024-01-06T00:43:24;100359.19;;;1.38;100.00
53932;BME280;39844;52.496;13.482;2024-01-06T00:45:50;100367.03;;;1.39;100.00
53932;BME280;39844;52.496;13.482;2024-01-06T00:48:15;100370.44;;;1.38;100.00
53932;BME280;39844;52.496;13.482;2024-01-06T00:50:40;100376.47;;;1.39;100.00
53932;BME280;39844;52.496;13.482;2024-01-06T00:53:06;100373.91;;;1.39;100.00
53932;BME280;39844;52.496;13.482;2024-01-06T00:55:31;100373.88;;;1.37;100.00
53932;BME280;39844;52.496;13.482;2024-01-06T00:57:56;100383.31;;;1.37;100.00
53932;BME280;39844;52.496;13.482;2024-01-06T01:00:21;100387.63;;;1.36;100.00
53932;BME280;39844;52.496;13.482;2024-01-06T01:02:47;100389.38;;;1.37;100.00
53932;BME280;39844;52.496;13.482;2024-01-06T01:05:12;100385.06;;;1.38;100.00
53932;BME280;39844;52.496;13.482;2024-01-06T01:07:37;100385.84;;;1.35;100.00
53932;BME280;39844;52.496;13.482;2024-01-06T01:10:03;100383.31;;;1.37;100.00
53932;BME280;39844;52.496;13.482;2024-01-06T01:12:28;100395.38;;;1.36;100.00
53932;BME280;39844;52.496;13.482;2024-01-06T01:14:54;100402.25;;;1.36;100.00
53932;BME280;39844;52.496;13.482;2024-01-06T01:17:19;100407.41;;;1.36;100.00
53932;BME280;39844;52.496;13.482;2024-01-06T01:19:45;100410.00;;;1.36;100.00
53932;BME280;39844;52.496;13.482;2024-01-06T01:22:10;100414.34;;;1.37;100.00
53932;BME280;39844;52.496;13.482;2024-01-06T01:24:36;100414.34;;;1.37;100.00
53932;BME280;39844;52.496;13.482;2024-01-06T01:27:01;100410.09;;;1.39;100.00
53932;BME280;39844;52.496;13.482;2024-01-06T01:29:26;100413.50;;;1.38;100.00
53932;BME280;39844;52.496;13.482;2024-01-06T01:31:52;100404.91;;;1.39;100.00
53932;BME280;39844;52.496;13.482;2024-01-06T01:34:17;100410.00;;;1.36;100.00
53932;BME280;39844;52.496;13.482;2024-01-06T01:36:42;100408.31;;;1.38;100.00
53932;BME280;39844;52.496;13.482;2024-01-06T01:39:08;100400.56;;;1.38;100.00
53932;BME280;39844;52.496;13.482;2024-01-06T01:41:33;100396.34;;;1.40;100.00
53932;BME280;39844;52.496;13.482;2024-01-06T01:43:58;100403.16;;;1.38;100.00
53932;BME280;39844;52.496;13.482;2024-01-06T01:46:27;100405.69;;;1.35;100.00
53932;BME280;39844;52.496;13.482;2024-01-06T01:48:54;100404.81;;;1.34;100.00
53932;BME280;39844;52.496;13.482;2024-01-06T01:51:19;100412.59;;;1.36;100.00
53932;BME280;39844;52.496;13.482;2024-01-06T01:53:45;100416.03;;;1.35;100.00
53932;BME280;39844;52.496;13.482;2024-01-06T01:56:12;100410.84;;;1.35;100.00
53932;BME280;39844;52.496;13.482;2024-01-06T01:58:38;100416.84;;;1.34;100.00
53932;BME280;39844;52.496;13.482;2024-01-06T02:01:03;100421.13;;;1.33;100.00
53932;BME280;39844;52.496;13.482;2024-01-06T02:03:30;100422.81;;;1.31;100.00
53932;BME280;39844;52.496;13.482;2024-01-06T02:05:55;100426.19;;;1.28;100.00
53932;BME280;39844;52.496;13.482;2024-01-06T02:08:21;100420.97;;;1.27;100.00
53932;BME280;39844;52.496;13.482;2024-01-06T02:10:46;100424.41;;;1.27;100.00
53932;BME280;39844;52.496;13.482;2024-01-06T02:13:12;100422.72;;;1.28;100.00
53932;BME280;39844;52.496;13.482;2024-01-06T02:15:38;100425.25;;;1.26;100.00
53932;BME280;39844;52.496;13.482;2024-01-06T02:18:03;100429.56;;;1.26;100.00
53932;BME280;39844;52.496;13.482;2024-01-06T02:20:31;100428.72;;;1.27;100.00
53932;BME280;39844;52.496;13.482;2024-01-06T02:22:57;100432.09;;;1.24;100.00
53932;BME280;39844;52.496;13.482;2024-01-06T02:25:22;100429.59;;;1.27;100.00
53932;BME280;39844;52.496;13.482;2024-01-06T02:27:47;100427.75;;;1.23;100.00
53932;BME280;39844;52.496;13.482;2024-01-06T02:30:13;100427.84;;;1.26;100.00
53932;BME280;39844;52.496;13.482;2024-01-06T02:32:38;100431.34;;;1.28;100.00
53932;BME280;39844;52.496;13.482;2024-01-06T02:35:04;100431.34;;;1.28;100.00
53932;BME280;39844;52.496;13.482;2024-01-06T02:37:29;100440.88;;;1.30;100.00
53932;BME280;39844;52.496;13.482;2024-01-06T02:39:54;100440.81;;;1.28;100.00
53932;BME280;39844;52.496;13.482;2024-01-06T02:42:20;100445.09;;;1.27;100.00
53932;BME280;39844;52.496;13.482;2024-01-06T02:44:45;100449.41;;;1.27;100.00
53932;BME280;39844;52.496;13.482;2024-01-06T02:47:10;100455.44;;;1.27;100.00
53932;BME280;39844;52.496;13.482;2024-01-06T02:49:35;100455.44;;;1.27;100.00
53932;BME280;39844;52.496;13.482;2024-01-06T02:52:01;100452.84;;;1.27;100.00
53932;BME280;39844;52.496;13.482;2024-01-06T02:54:26;100453.69;;;1.26;100.00
53932;BME280;39844;52.496;13.482;2024-01-06T02:56:51;100463.16;;;1.26;100.00
53932;BME280;39844;52.496;13.482;2024-01-06T02:59:16;100463.16;;;1.26;100.00
53932;BME280;39844;52.496;13.482;2024-01-06T03:01:42;100463.16;;;1.26;100.00
53932;BME280;39844;52.496;13.482;2024-01-06T03:04:07;100456.28;;;1.26;100.00
53932;BME280;39844;52.496;13.482;2024-01-06T03:06:32;100451.94;;;1.25;100.00
53932;BME280;39844;52.496;13.482;2024-01-06T03:08:58;100463.16;;;1.26;100.00
53932;BME280;39844;52.496;13.482;2024-01-06T03:11:23;100457.97;;;1.24;100.00
53932;BME280;39844;52.496;13.482;2024-01-06T03:13:48;100459.69;;;1.25;100.00
53932;BME280;39844;52.496;13.482;2024-01-06T03:16:14;100462.28;;;1.25;100.00
53932;BME280;39844;52.496;13.482;2024-01-06T03:18:39;100469.22;;;1.26;100.00
53932;BME280;39844;52.496;13.482;2024-01-06T03:21:04;100470.91;;;1.26;100.00
53932;BME280;39844;52.496;13.482;2024-01-06T03:23:29;100471.78;;;1.26;100.00
53932;BME280;39844;52.496;13.482;2024-01-06T03:25:55;100472.72;;;1.28;100.00
53932;BME280;39844;52.496;13.482;2024-01-06T03:28:20;100469.31;;;1.30;100.00
53932;BME280;39844;52.496;13.482;2024-01-06T03:30:45;100469.22;;;1.26;100.00
53932;BME280;39844;52.496;13.482;2024-01-06T03:33:11;100477.78;;;1.25;100.00
53932;BME280;39844;52.496;13.482;2024-01-06T03:35:36;100477.78;;;1.25;100.00
53932;BME280;39844;52.496;13.482;2024-01-06T03:38:01;100486.44;;;1.27;100.00
53932;BME280;39844;52.496;13.482;2024-01-06T03:40:26;100484.72;;;1.26;100.00
53932;BME280;39844;52.496;13.482;2024-01-06T03:42:52;100482.06;;;1.25;100.00
53932;BME280;39844;52.496;13.482;2024-01-06T03:45:17;100480.38;;;1.25;100.00
53932;BME280;39844;52.496;13.482;2024-01-06T03:47:42;100487.22;;;1.23;100.00
53932;BME280;39844;52.496;13.482;2024-01-06T03:50:08;100498.38;;;1.22;100.00
53932;BME280;39844;52.496;13.482;2024-01-06T03:52:33;100492.28;;;1.20;100.00
53932;BME280;39844;52.496;13.482;2024-01-06T03:54:58;100489.75;;;1.22;100.00
53932;BME280;39844;52.496;13.482;2024-01-06T03:57:24;100489.69;;;1.20;100.00
53932;BME280;39844;52.496;13.482;2024-01-06T03:59:49;100501.81;;;1.21;100.00
53932;BME280;39844;52.496;13.482;2024-01-06T04:02:14;100494.88;;;1.20;100.00
53932;BME280;39844;52.496;13.482;2024-01-06T04:04:39;100497.53;;;1.22;100.00
53932;BME280;39844;52.496;13.482;2024-01-06T04:07:05;100500.03;;;1.20;100.00
53932;BME280;39844;52.496;13.482;2024-01-06T04:09:30;100498.31;;;1.19;100.00
53932;BME280;39844;52.496;13.482;2024-01-06T04:11:55;100508.63;;;1.19;100.00
53932;BME280;39844;52.496;13.482;2024-01-06T04:14:21;100512.03;;;1.18;100.00
53932;BME280;39844;52.496;13.482;2024-01-06T04:16:46;100508.63;;;1.19;100.00
53932;BME280;39844;52.496;13.482;2024-01-06T04:19:11;100508.72;;;1.22;100.00
53932;BME280;39844;52.496;13.482;2024-01-06T04:21:36;100515.53;;;1.20;100.00
53932;BME280;39844;52.496;13.482;2024-01-06T04:24:02;100517.31;;;1.21;100.00
53932;BME280;39844;52.496;13.482;2024-01-06T04:26:27;100531.16;;;1.23;100.00
53932;BME280;39844;52.496;13.482;2024-01-06T04:28:52;100525.16;;;1.24;100.00
53932;BME280;39844;52.496;13.482;2024-01-06T04:31:18;100525.94;;;1.22;100.00
53932;BME280;39844;52.496;13.482;2024-01-06T04:33:43;100529.44;;;1.24;100.00
53932;BME280;39844;52.496;13.482;2024-01-06T04:36:08;100527.75;;;1.24;100.00
53932;BME280;39844;52.496;13.482;2024-01-06T04:38:34;100534.56;;;1.22;100.00
53932;BME280;39844;52.496;13.482;2024-01-06T04:40:59;100539.72;;;1.22;100.00
53932;BME280;39844;52.496;13.482;2024-01-06T04:43:24;100527.66;;;1.21;100.00
53932;BME280;39844;52.496;13.482;2024-01-06T04:45:49;100531.97;;;1.22;100.00
53932;BME280;39844;52.496;13.482;2024-01-06T04:48:15;100538.81;;;1.20;100.00
53932;BME280;39844;52.496;13.482;2024-01-06T04:50:40;100532.81;;;1.21;100.00
53932;BME280;39844;52.496;13.482;2024-01-06T04:53:05;100541.38;;;1.20;100.00
53932;BME280;39844;52.496;13.482;2024-01-06T04:55:31;100537.00;;;1.18;100.00
53932;BME280;39844;52.496;13.482;2024-01-06T04:57:56;100538.72;;;1.17;100.00
53932;BME280;39844;52.496;13.482;2024-01-06T05:00:21;100545.59;;;1.17;100.00
53932;BME280;39844;52.496;13.482;2024-01-06T05:02:46;100555.06;;;1.16;100.00
53932;BME280;39844;52.496;13.482;2024-01-06T05:05:12;100548.13;;;1.15;100.00
53932;BME280;39844;52.496;13.482;2024-01-06T05:07:37;100554.22;;;1.17;100.00
53932;BME280;39844;52.496;13.482;2024-01-06T05:10:02;100560.22;;;1.16;100.00
53932;BME280;39844;52.496;13.482;2024-01-06T05:12:28;100557.59;;;1.15;100.00
53932;BME280;39844;52.496;13.482;2024-01-06T05:14:53;100556.78;;;1.17;100.00
53932;BME280;39844;52.496;13.482;2024-01-06T05:17:18;100561.13;;;1.17;100.00
53932;BME280;39844;52.496;13.482;2024-01-06T05:19:44;100560.22;;;1.16;100.00
53932;BME280;39844;52.496;13.482;2024-01-06T05:22:09;100562.81;;;1.16;100.00
53932;BME280;39844;52.496;13.482;2024-01-06T05:24:34;100557.66;;;1.16;100.00
53932;BME280;39844;52.496;13.482;2024-01-06T05:27:00;100562.84;;;1.18;100.00
53932;BME280;39844;52.496;13.482;2024-01-06T05:29:25;100570.66;;;1.19;100.00
53932;BME280;39844;52.496;13.482;2024-01-06T05:31:50;100559.38;;;1.17;100.00
53932;BME280;39844;52.496;13.482;2024-01-06T05:34:15;100572.31;;;1.17;100.00
53932;BME280;39844;52.496;13.482;2024-01-06T05:36:41;100566.28;;;1.17;100.00
53932;BME280;39844;52.496;13.482;2024-01-06T05:39:06;100580.91;;;1.16;100.00
53932;BME280;39844;52.496;13.482;2024-01-06T05:41:37;100580.03;;;1.16;100.00
53932;BME280;39844;52.496;13.482;2024-01-06T05:44:02;100585.13;;;1.14;100.00
53932;BME280;39844;52.496;13.482;2024-01-06T05:46:28;100581.72;;;1.15;100.00
53932;BME280;39844;52.496;13.482;2024-01-06T05:48:53;100582.59;;;1.16;100.00
53932;BME280;39844;52.496;13.482;2024-01-06T05:51:18;100581.72;;;1.15;100.00
53932;BME280;39844;52.496;13.482;2024-01-06T05:53:44;100591.16;;;1.13;100.00
53932;BME280;39844;52.496;13.482;2024-01-06T05:56:09;100592.81;;;1.11;100.00
53932;BME280;39844;52.496;13.482;2024-01-06T05:58:34;100605.72;;;1.11;100.00
53932;BME280;39844;52.496;13.482;2024-01-06T06:01:00;100603.97;;;1.10;100.00
53932;BME280;39844;52.496;13.482;2024-01-06T06:03:25;100604.88;;;1.12;100.00
53932;BME280;39844;52.496;13.482;2024-01-06T06:05:50;100604.88;;;1.12;100.00
53932;BME280;39844;52.496;13.482;2024-01-06T06:08:16;100606.53;;;1.10;100.00
53932;BME280;39844;52.496;13.482;2024-01-06T06:10:41;100612.59;;;1.11;100.00
53932;BME280;39844;52.496;13.482;2024-01-06T06:13:07;100615.13;;;1.09;100.00
53932;BME280;39844;52.496;13.482;2024-01-06T06:15:32;100613.41;;;1.10;100.00
53932;BME280;39844;52.496;13.482;2024-01-06T06:17:58;100622.94;;;1.11;100.00
53932;BME280;39844;52.496;13.482;2024-01-06T06:20:23;100629.00;;;1.11;100.00
53932;BME280;39844;52.496;13.482;2024-01-06T06:22:49;100633.28;;;1.11;100.00
53932;BME280;39844;52.496;13.482;2024-01-06T06:25:14;100638.47;;;1.12;100.00
53932;BME280;39844;52.496;13.482;2024-01-06T06:27:39;100642.63;;;1.07;100.00
53932;BME280;39844;52.496;13.482;2024-01-06T06:30:05;100648.63;;;1.06;100.00
53932;BME280;39844;52.496;13.482;2024-01-06T06:32:30;100648.63;;;1.06;100.00
53932;BME280;39844;52.496;13.482;2024-01-06T06:34:56;100660.69;;;1.06;100.00
53932;BME280;39844;52.496;13.482;2024-01-06T06:37:21;100655.44;;;1.04;100.00
53932;BME280;39844;52.496;13.482;2024-01-06T06:39:48;100658.91;;;1.05;100.00
53932;BME280;39844;52.496;13.482;2024-01-06T06:42:13;100663.28;;;1.07;100.00
53932;BME280;39844;52.496;13.482;2024-01-06T06:44:38;100666.72;;;1.06;100.00
53932;BME280;39844;52.496;13.482;2024-01-06T06:47:04;100672.72;;;1.05;100.00
53932;BME280;39844;52.496;13.482;2024-01-06T06:49:29;100673.53;;;1.04;100.00
53932;BME280;39844;52.496;13.482;2024-01-06T06:51:54;100688.97;;;1.01;100.00
53932;BME280;39844;52.496;13.482;2024-01-06T06:54:19;100687.16;;;0.99;100.00
53932;BME280;39844;52.496;13.482;2024-01-06T06:56:45;100700.91;;;0.99;100.00
53932;BME280;39844;52.496;13.482;2024-01-06T06:59:10;100699.19;;;0.98;100.00
53932;BME280;39844;52.496;13.482;2024-01-06T07:01:36;100697.41;;;0.97;100.00
53932;BME280;39844;52.496;13.482;2024-01-06T07:04:02;100714.69;;;0.98;100.00
53932;BME280;39844;52.496;13.482;2024-01-06T07:06:27;100719.75;;;0.95;100.00
53932;BME280;39844;52.496;13.482;2024-01-06T07:08:53;100723.91;;;0.92;100.00
53932;BME280;39844;52.496;13.482;2024-01-06T07:11:18;100731.66;;;0.92;100.00
53932;BME280;39844;52.496;13.482;2024-01-06T07:13:44;100732.41;;;0.88;100.00
53932;BME280;39844;52.496;13.482;2024-01-06T07:16:09;100733.28;;;0.88;100.00
53932;BME280;39844;52.496;13.482;2024-01-06T07:18:34;100738.56;;;0.91;100.00
53932;BME280;39844;52.496;13.482;2024-01-06T07:20:59;100736.69;;;0.87;100.00
53932;BME280;39844;52.496;13.482;2024-01-06T07:23:25;100728.00;;;0.85;100.00
53932;BME280;39844;52.496;13.482;2024-01-06T07:25:50;100745.16;;;0.83;100.00
53932;BME280;39844;52.496;13.482;2024-01-06T07:28:15;100754.50;;;0.80;100.00
53932;BME280;39844;52.496;13.482;2024-01-06T07:30:41;100756.16;;;0.78;100.00
53932;BME280;39844;52.496;13.482;2024-01-06T07:33:06;100764.72;;;0.77;100.00
53932;BME280;39844;52.496;13.482;2024-01-06T07:35:31;100769.03;;;0.76;100.00
53932;BME280;39844;52.496;13.482;2024-01-06T07:37:57;100774.19;;;0.76;100.00
53932;BME280;39844;52.496;13.482;2024-01-06T07:40:22;100769.03;;;0.76;100.00
53932;BME280;39844;52.496;13.482;2024-01-06T07:42:47;100772.31;;;0.72;100.00
53932;BME280;39844;52.496;13.482;2024-01-06T07:45:13;100769.69;;;0.71;100.00
53932;BME280;39844;52.496;13.482;2024-01-06T07:47:38;100772.19;;;0.69;100.00
53932;BME280;39844;52.496;13.482;2024-01-06T07:50:03;100771.25;;;0.67;100.00
53932;BME280;39844;52.496;13.482;2024-01-06T07:52:29;100781.53;;;0.66;100.00
53932;BME280;39844;52.496;13.482;2024-01-06T07:54:54;100788.41;;;0.65;100.00
53932;BME280;39844;52.496;13.482;2024-01-06T07:57:19;100796.19;;;0.67;100.00
53932;BME280;39844;52.496;13.482;2024-01-06T07:59:45;100804.84;;;0.67;100.00
53932;BME280;39844;52.496;13.482;2024-01-06T08:02:11;100796.16;;;0.65;100.00
53932;BME280;39844;52.496;13.482;2024-01-06T08:04:36;100799.50;;;0.62;100.00
53932;BME280;39844;52.496;13.482;2024-01-06T08:07:01;100805.47;;;0.61;100.00
53932;BME280;39844;52.496;13.482;2024-01-06T08:09:26;100810.59;;;0.60;100.00
53932;BME280;39844;52.496;13.482;2024-01-06T08:11:52;100822.59;;;0.58;100.00
53932;BME280;39844;52.496;13.482;2024-01-06T08:14:17;100827.69;;;0.56;100.00
53932;BME280;39844;52.496;13.482;2024-01-06T08:16:43;100824.19;;;0.56;100.00
53932;BME280;39844;52.496;13.482;2024-01-06T08:19:08;100819.94;;;0.56;100.00
53932;BME280;39844;52.496;13.482;2024-01-06T08:21:34;100831.75;;;0.50;100.00
53932;BME280;39844;52.496;13.482;2024-01-06T08:23:59;100820.47;;;0.48;100.00
53932;BME280;39844;52.496;13.482;2024-01-06T08:26:24;100835.97;;;0.48;100.00
53932;BME280;39844;52.496;13.482;2024-01-06T08:28:50;100825.56;;;0.46;100.00
53932;BME280;39844;52.496;13.482;2024-01-06T08:31:15;100835.91;;;0.46;100.00
53932;BME280;39844;52.496;13.482;2024-01-06T08:33:40;100840.16;;;0.46;100.00
53932;BME280;39844;52.496;13.482;2024-01-06T08:36:06;100840.16;;;0.46;100.00
53932;BME280;39844;52.496;13.482;2024-01-06T08:38:31;100852.16;;;0.44;100.00
53932;BME280;39844;52.496;13.482;2024-01-06T08:40:56;100850.50;;;0.46;100.00
53932;BME280;39844;52.496;13.482;2024-01-06T08:43:22;100856.50;;;0.45;100.00
53932;BME280;39844;52.496;13.482;2024-01-06T08:45:47;100850.50;;;0.46;100.00
53932;BME280;39844;52.496;13.482;2024-01-06T08:48:12;100864.28;;;0.46;100.00
53932;BME280;39844;52.496;13.482;2024-01-06T08:50:37;100872.00;;;0.45;100.00
53932;BME280;39844;52.496;13.482;2024-01-06T08:53:03;100876.31;;;0.46;100.00
53932;BME280;39844;52.496;13.482;2024-01-06T08:55:28;100876.22;;;0.43;100.00
53932;BME280;39844;52.496;13.482;2024-01-06T08:57:54;100878.81;;;0.43;100.00
53932;BME280;39844;52.496;13.482;2024-01-06T09:00:19;100878.84;;;0.44;100.00
53932;BME280;39844;52.496;13.482;2024-01-06T09:02:44;100878.81;;;0.43;100.00
53932;BME280;39844;52.496;13.482;2024-01-06T09:05:09;100895.09;;;0.42;100.00
53932;BME280;39844;52.496;13.482;2024-01-06T09:07:35;100896.00;;;0.42;100.00
53932;BME280;39844;52.496;13.482;2024-01-06T09:10:00;100896.75;;;0.40;100.00
53932;BME280;39844;52.496;13.482;2024-01-06T09:12:25;100909.72;;;0.41;100.00
53932;BME280;39844;52.496;13.482;2024-01-06T09:14:51;100910.72;;;0.45;100.00
53932;BME280;39844;52.496;13.482;2024-01-06T09:17:16;100916.81;;;0.47;100.00
53932;BME280;39844;52.496;13.482;2024-01-06T09:19:41;100923.69;;;0.46;100.00
53932;BME280;39844;52.496;13.482;2024-01-06T09:22:06;100921.19;;;0.48;100.00
53932;BME280;39844;52.496;13.482;2024-01-06T09:24:32;100922.03;;;0.48;100.00
53932;BME280;39844;52.496;13.482;2024-01-06T09:26:57;100926.25;;;0.46;100.00
53932;BME280;39844;52.496;13.482;2024-01-06T09:29:22;100925.31;;;0.44;100.00
53932;BME280;39844;52.496;13.482;2024-01-06T09:31:48;100932.91;;;0.40;100.00
53932;BME280;39844;52.496;13.482;2024-01-06T09:34:13;100931.13;;;0.39;100.00
53932;BME280;39844;52.496;13.482;2024-01-06T09:36:38;100941.44;;;0.39;100.00
53932;BME280;39844;52.496;13.482;2024-01-06T09:39:04;100941.41;;;0.37;100.00
53932;BME280;39844;52.496;13.482;2024-01-06T09:41:30;100936.25;;;0.37;100.00
53932;BME280;39844;52.496;13.482;2024-01-06T09:43:56;100950.03;;;0.38;100.00
53932;BME280;39844;52.496;13.482;2024-01-06T09:46:25;100949.16;;;0.37;100.00
53932;BME280;39844;52.496;13.482;2024-01-06T09:48:52;100952.47;;;0.35;100.00
53932;BME280;39844;52.496;13.482;2024-01-06T09:51:18;100948.13;;;0.34;100.00
53932;BME280;39844;52.496;13.482;2024-01-06T09:54:01;100949.91;;;0.35;100.00
53932;BME280;39844;52.496;13.482;2024-01-06T09:56:28;100956.00;;;0.37;100.00
53932;BME280;39844;52.496;13.482;2024-01-06T09:58:55;100961.28;;;0.40;100.00
53932;BME280;39844;52.496;13.482;2024-01-06T10:01:21;100958.75;;;0.41;100.00
53932;BME280;39844;52.496;13.482;2024-01-06T10:03:47;100958.72;;;0.40;100.00
53932;BME280;39844;52.496;13.482;2024-01-06T10:06:15;100960.34;;;0.38;100.00
53932;BME280;39844;52.496;13.482;2024-01-06T10:08:48;100964.00;;;0.43;100.00
53932;BME280;39844;52.496;13.482;2024-01-06T10:11:13;100973.50;;;0.44;100.00
53932;BME280;39844;52.496;13.482;2024-01-06T10:13:39;100984.66;;;0.43;100.00
53932;BME280;39844;52.496;13.482;2024-01-06T10:16:06;100987.25;;;0.43;100.00
53932;BME280;39844;52.496;13.482;2024-01-06T10:18:31;100991.69;;;0.47;100.00
53932;BME280;39844;52.496;13.482;2024-01-06T10:20:57;100982.31;;;0.49;100.00
53932;BME280;39844;52.496;13.482;2024-01-06T10:23:23;100979.03;;;0.53;100.00
53932;BME280;39844;52.496;13.482;2024-01-06T10:25:52;100977.31;;;0.53;100.00
53932;BME280;39844;52.496;13.482;2024-01-06T10:28:17;100972.06;;;0.50;100.00
53932;BME280;39844;52.496;13.482;2024-01-06T10:30:42;100970.28;;;0.49;100.00
53932;BME280;39844;52.496;13.482;2024-01-06T10:33:11;100969.47;;;0.50;100.00
53932;BME280;39844;52.496;13.482;2024-01-06T10:35:37;100975.41;;;0.48;100.00
53932;BME280;39844;52.496;13.482;2024-01-06T10:38:03;100976.06;;;0.44;100.00
53932;BME280;39844;52.496;13.482;2024-01-06T10:40:28;100983.69;;;0.41;100.00
53932;BME280;39844;52.496;13.482;2024-01-06T10:42:53;100982.84;;;0.40;100.00
53932;BME280;39844;52.496;13.482;2024-01-06T10:45:19;100995.00;;;0.43;100.00
53932;BME280;39844;52.496;13.482;2024-01-06T10:47:44;100988.19;;;0.45;100.00
53932;BME280;39844;52.496;13.482;2024-01-06T10:50:10;100980.47;;;0.46;100.00
53932;BME280;39844;52.496;13.482;2024-01-06T10:52:38;100978.84;;;0.48;100.00
53932;BME280;39844;52.496;13.482;2024-01-06T10:55:04;100983.16;;;0.48;100.00
53932;BME280;39844;52.496;13.482;2024-01-06T10:57:30;100983.94;;;0.47;100.00
53932;BME280;39844;52.496;13.482;2024-01-06T10:59:57;100982.13;;;0.44;100.00
53932;BME280;39844;52.496;13.482;2024-01-06T11:02:23;100979.50;;;0.43;100.00
53932;BME280;39844;52.496;13.482;2024-01-06T11:04:49;100986.28;;;0.41;100.00
53932;BME280;39844;52.496;13.482;2024-01-06T11:07:17;100988.84;;;0.41;100.00
53932;BME280;39844;52.496;13.482;2024-01-06T11:09:49;100992.28;;;0.40;100.00
53932;BME280;39844;52.496;13.482;2024-01-06T11:12:15;100994.84;;;0.40;100.00
53932;BME280;39844;52.496;13.482;2024-01-06T11:14:40;100986.97;;;0.37;100.00
53932;BME280;39844;52.496;13.482;2024-01-06T11:17:06;100989.59;;;0.38;100.00
53932;BME280;39844;52.496;13.482;2024-01-06T11:22:25;100991.44;;;0.41;100.00
53932;BME280;39844;52.496;13.482;2024-01-06T11:24:51;101001.97;;;0.45;100.00
53932;BME280;39844;52.496;13.482;2024-01-06T11:27:27;100995.78;;;0.42;100.00
53932;BME280;39844;52.496;13.482;2024-01-06T11:29:53;100994.00;;;0.41;100.00
53932;BME280;39844;52.496;13.482;2024-01-06T11:32:28;100986.28;;;0.41;100.00
53932;BME280;39844;52.496;13.482;2024-01-06T11:34:55;100988.84;;;0.41;100.00
53932;BME280;39844;52.496;13.482;2024-01-06T11:42:34;100999.09;;;0.38;100.00
53932;BME280;39844;52.496;13.482;2024-01-06T11:45:04;100991.25;;;0.36;100.00
53932;BME280;39844;52.496;13.482;2024-01-06T11:47:29;100988.00;;;0.40;100.00
53932;BME280;39844;52.496;13.482;2024-01-06T11:49:56;100994.16;;;0.44;100.00
53932;BME280;39844;52.496;13.482;2024-01-06T11:52:23;100992.44;;;0.44;100.00
53932;BME280;39844;52.496;13.482;2024-01-06T11:54:49;100984.75;;;0.46;100.00
53932;BME280;39844;52.496;13.482;2024-01-06T11:57:14;100986.47;;;0.45;100.00
53932;BME280;39844;52.496;13.482;2024-01-06T11:59:39;100986.53;;;0.47;100.00
53932;BME280;39844;52.496;13.482;2024-01-06T12:02:04;100988.31;;;0.48;100.00
53932;BME280;39844;52.496;13.482;2024-01-06T12:04:30;100990.06;;;0.49;100.00
53932;BME280;39844;52.496;13.482;2024-01-06T12:07:05;100994.41;;;0.50;100.00
53932;BME280;39844;52.496;13.482;2024-01-06T12:09:30;100995.34;;;0.52;100.00
53932;BME280;39844;52.496;13.482;2024-01-06T12:12:03;100993.69;;;0.54;100.00
53932;BME280;39844;52.496;13.482;2024-01-06T12:14:29;100999.00;;;0.57;100.00
53932;BME280;39844;52.496;13.482;2024-01-06T12:16:54;101004.25;;;0.58;100.00
53932;BME280;39844;52.496;13.482;2024-01-06T12:19:20;101003.28;;;0.56;100.00
53932;BME280;39844;52.496;13.482;2024-01-06T12:21:45;101002.38;;;0.56;100.00
53932;BME280;39844;52.496;13.482;2024-01-06T12:24:20;101004.03;;;0.54;100.00
53932;BME280;39844;52.496;13.482;2024-01-06T12:26:45;101000.63;;;0.55;100.00
53932;BME280;39844;52.496;13.482;2024-01-06T12:29:12;101010.84;;;0.52;100.00
53932;BME280;39844;52.496;13.482;2024-01-06T12:31:38;101009.94;;;0.51;100.00
53932;BME280;39844;52.496;13.482;2024-01-06T12:34:04;101008.25;;;0.52;100.00
53932;BME280;39844;52.496;13.482;2024-01-06T12:36:30;101012.34;;;0.47;100.00
53932;BME280;39844;52.496;13.482;2024-01-06T12:38:57;101011.28;;;0.42;100.00
53932;BME280;39844;52.496;13.482;2024-01-06T12:41:22;101022.41;;;0.41;100.00